createdAt,value
2023-04-22T00:00:25.986Z,100.00
2023-04-22T00:03:12.950Z,100.00
2023-04-22T00:05:42.191Z,100.00
2023-04-22T00:08:09.129Z,100.00
2023-04-22T00:10:36.245Z,100.00
2023-04-22T00:13:03.079Z,100.00
2023-04-22T00:15:30.204Z,100.00
2023-04-22T00:17:58.849Z,100.00
2023-04-22T00:20:25.970Z,100.00
2023-04-22T00:22:52.888Z,100.00
2023-04-22T00:25:20.110Z,100.00
2023-04-22T00:27:46.978Z,100.00
2023-04-22T00:30:14.319Z,100.00
2023-04-22T00:32:41.184Z,100.00
2023-04-22T00:35:08.909Z,100.00
2023-04-22T00:37:35.938Z,100.00
2023-04-22T00:40:03.543Z,100.00
2023-04-22T00:50:57.135Z,100.00
2023-04-22T00:53:24.336Z,100.00
2023-04-22T00:55:51.325Z,100.00
2023-04-22T00:58:19.336Z,100.00
2023-04-22T01:00:46.236Z,100.00
2023-04-22T01:03:13.721Z,100.00
2023-04-22T01:05:41.594Z,100.00
2023-04-22T01:08:08.713Z,100.00
2023-04-22T01:10:36.136Z,100.00
2023-04-22T01:13:03.540Z,100.00
2023-04-22T01:15:30.853Z,100.00
2023-04-22T01:17:59.126Z,100.00
2023-04-22T01:20:29.532Z,100.00
2023-04-22T01:23:00.213Z,100.00
2023-04-22T01:25:27.124Z,100.00
2023-04-22T01:27:55.430Z,100.00
2023-04-22T01:30:22.364Z,100.00
2023-04-22T01:32:49.969Z,100.00
2023-04-22T01:35:16.826Z,100.00
2023-04-22T01:37:44.858Z,100.00
2023-04-22T01:40:13.924Z,100.00
2023-04-22T01:42:41.594Z,100.00
2023-04-22T01:45:09.001Z,100.00
2023-04-22T01:47:36.157Z,100.00
2023-04-22T01:50:03.029Z,100.00
2023-04-22T01:52:31.010Z,100.00
2023-04-22T01:54:58.342Z,100.00
2023-04-22T01:57:25.484Z,100.00
2023-04-22T01:59:52.347Z,100.00
2023-04-22T02:02:19.517Z,100.00
2023-04-22T02:04:46.577Z,100.00
2023-04-22T02:07:13.779Z,100.00
2023-04-22T02:09:40.852Z,100.00
2023-04-22T02:12:08.392Z,100.00
2023-04-22T02:14:35.460Z,100.00
2023-04-22T02:17:03.331Z,100.00
2023-04-22T02:19:30.382Z,100.00
2023-04-22T02:21:58.220Z,100.00
2023-04-22T02:24:25.148Z,100.00
2023-04-22T02:26:52.395Z,100.00
2023-04-22T02:29:19.285Z,100.00
2023-04-22T02:31:46.489Z,100.00
2023-04-22T02:34:13.372Z,100.00
2023-04-22T02:36:40.624Z,100.00
2023-04-22T02:39:07.596Z,100.00
2023-04-22T02:41:34.815Z,100.00
2023-04-22T02:44:01.678Z,100.00
2023-04-22T02:46:28.866Z,100.00
2023-04-22T02:51:51.085Z,100.00
2023-04-22T02:54:18.269Z,100.00
2023-04-22T02:56:46.193Z,100.00
2023-04-22T02:59:13.297Z,100.00
2023-04-22T03:01:40.237Z,100.00
2023-04-22T03:04:07.501Z,100.00
2023-04-22T03:06:34.375Z,100.00
2023-04-22T03:09:01.491Z,100.00
2023-04-22T03:11:28.398Z,100.00
2023-04-22T03:13:55.621Z,100.00
2023-04-22T03:16:25.659Z,100.00
2023-04-22T03:18:52.926Z,100.00
2023-04-22T03:21:19.777Z,100.00
2023-04-22T03:23:47.024Z,100.00
2023-04-22T03:26:13.900Z,100.00
2023-04-22T03:28:41.080Z,100.00
2023-04-22T03:31:07.932Z,100.00
2023-04-22T03:33:35.131Z,100.00
2023-04-22T03:36:02.130Z,100.00
2023-04-22T03:38:29.312Z,100.00
2023-04-22T03:40:56.210Z,100.00
2023-04-22T03:43:23.416Z,100.00
2023-04-22T03:45:51.675Z,100.00
2023-04-22T03:48:18.912Z,100.00
2023-04-22T03:50:46.083Z,100.00
2023-04-22T03:53:13.286Z,100.00
2023-04-22T03:55:40.252Z,100.00
2023-04-22T03:58:07.422Z,100.00
2023-04-22T04:00:34.250Z,100.00
2023-04-22T04:03:01.736Z,100.00
2023-04-22T04:05:28.976Z,100.00
2023-04-22T04:07:56.642Z,100.00
2023-04-22T04:10:23.516Z,100.00
2023-04-22T04:12:50.678Z,100.00
2023-04-22T04:15:19.270Z,100.00
2023-04-22T04:17:46.430Z,100.00
2023-04-22T04:20:13.762Z,100.00
2023-04-22T04:22:41.172Z,100.00
2023-04-22T04:25:08.370Z,100.00
2023-04-22T04:27:35.508Z,100.00
2023-04-22T04:30:03.999Z,100.00
2023-04-22T04:32:34.447Z,100.00
2023-04-22T04:35:02.247Z,100.00
2023-04-22T04:37:29.637Z,100.00
2023-04-22T04:39:59.346Z,100.00
2023-04-22T04:42:26.507Z,100.00
2023-04-22T04:44:53.709Z,100.00
2023-04-22T04:47:22.694Z,100.00
2023-04-22T04:49:50.297Z,100.00
2023-04-22T04:52:17.447Z,100.00
2023-04-22T04:54:44.416Z,99.26
2023-04-22T04:57:11.575Z,97.01
2023-04-22T04:59:38.690Z,94.55
2023-04-22T05:02:06.209Z,94.18
2023-04-22T05:04:33.601Z,94.32
2023-04-22T05:07:00.957Z,93.02
2023-04-22T05:09:27.791Z,93.39
2023-04-22T05:11:54.875Z,92.35
2023-04-22T05:14:21.665Z,90.46
2023-04-22T05:16:48.968Z,88.87
2023-04-22T05:19:15.822Z,89.90
2023-04-22T05:21:42.988Z,88.25
2023-04-22T05:24:09.788Z,86.57
2023-04-22T05:26:36.941Z,87.06
2023-04-22T05:29:03.840Z,86.81
2023-04-22T05:31:31.073Z,85.45
2023-04-22T05:33:57.999Z,83.96
2023-04-22T05:36:25.270Z,80.92
2023-04-22T05:38:52.068Z,75.69
2023-04-22T05:41:19.188Z,74.10
2023-04-22T05:43:46.481Z,72.10
2023-04-22T05:46:13.879Z,72.41
2023-04-22T05:48:40.867Z,73.38
2023-04-22T05:51:08.080Z,67.82
2023-04-22T05:53:34.862Z,67.28
2023-04-22T05:56:02.153Z,66.72
2023-04-22T05:58:29.055Z,69.59
2023-04-22T06:00:56.354Z,63.63
2023-04-22T06:03:23.495Z,58.48
2023-04-22T06:05:50.923Z,55.31
2023-04-22T06:08:17.906Z,54.22
2023-04-22T06:10:45.270Z,55.14
2023-04-22T06:13:12.189Z,55.73
2023-04-22T06:15:39.506Z,56.77
2023-04-22T06:18:06.485Z,57.88
2023-04-22T06:20:35.886Z,58.50
2023-04-22T06:23:05.301Z,60.78
2023-04-22T06:25:33.009Z,61.11
2023-04-22T06:27:59.988Z,60.31
2023-04-22T06:30:27.844Z,60.73
2023-04-22T06:32:56.365Z,60.66
2023-04-22T06:35:23.666Z,60.23
2023-04-22T06:37:50.645Z,58.86
2023-04-22T06:40:17.892Z,57.65
2023-04-22T06:42:44.928Z,54.11
2023-04-22T06:45:13.067Z,50.72
2023-04-22T06:47:40.547Z,46.94
2023-04-22T06:50:09.218Z,42.48
2023-04-22T06:52:36.597Z,39.91
2023-04-22T06:55:04.176Z,35.81
2023-04-22T06:57:31.359Z,36.45
2023-04-22T06:59:58.560Z,35.05
2023-04-22T07:02:25.530Z,36.42
2023-04-22T07:04:52.765Z,37.09
2023-04-22T07:07:19.709Z,35.68
2023-04-22T07:09:46.883Z,35.84
2023-04-22T07:12:13.731Z,35.24
2023-04-22T07:14:44.825Z,34.81
2023-04-22T07:17:12.808Z,34.34
2023-04-22T07:19:40.310Z,33.71
2023-04-22T07:22:07.579Z,32.11
2023-04-22T07:24:34.755Z,29.33
2023-04-22T07:27:02.464Z,27.99
2023-04-22T07:29:29.579Z,26.54
2023-04-22T07:31:56.679Z,26.45
2023-04-22T07:34:23.901Z,25.40
2023-04-22T07:36:52.346Z,24.23
2023-04-22T07:39:19.518Z,24.13
2023-04-22T07:41:46.401Z,23.85
2023-04-22T07:44:18.522Z,24.39
2023-04-22T07:46:45.487Z,24.70
2023-04-22T07:49:14.339Z,23.79
2023-04-22T07:51:41.266Z,24.05
2023-04-22T07:54:08.459Z,23.40
2023-04-22T07:56:35.457Z,23.47
2023-04-22T07:59:03.445Z,24.28
2023-04-22T08:01:30.443Z,23.44
2023-04-22T08:03:57.800Z,23.64
2023-04-22T08:06:25.057Z,23.28
2023-04-22T08:08:52.293Z,23.28
2023-04-22T08:11:19.289Z,21.74
2023-04-22T08:13:46.550Z,22.12
2023-04-22T08:16:13.566Z,22.01
2023-04-22T08:18:41.195Z,20.06
2023-04-22T08:21:08.205Z,19.91
2023-04-22T08:23:35.407Z,19.62
2023-04-22T08:26:03.472Z,18.84
2023-04-22T08:28:30.569Z,19.27
2023-04-22T08:30:57.659Z,18.65
2023-04-22T08:33:27.145Z,18.64
2023-04-22T08:35:54.271Z,18.79
2023-04-22T08:38:21.435Z,19.84
2023-04-22T08:40:49.016Z,19.62
2023-04-22T08:43:16.280Z,20.55
2023-04-22T08:45:43.373Z,21.58
2023-04-22T08:48:12.738Z,21.51
2023-04-22T08:50:40.100Z,22.46
2023-04-22T08:53:07.318Z,23.20
2023-04-22T08:55:35.519Z,23.32
2023-04-22T08:58:04.469Z,23.59
2023-04-22T09:00:32.275Z,23.52
2023-04-22T09:03:05.353Z,23.17
2023-04-22T09:05:37.705Z,23.46
2023-04-22T09:08:05.356Z,22.67
2023-04-22T09:10:34.126Z,23.44
2023-04-22T09:13:03.485Z,23.32
2023-04-22T09:15:31.019Z,23.69
2023-04-22T09:17:58.708Z,23.96
2023-04-22T09:20:28.130Z,23.92
2023-04-22T09:23:55.512Z,23.80
2023-04-22T09:26:26.253Z,23.47
2023-04-22T09:28:56.536Z,22.87
2023-04-22T09:31:24.282Z,23.08
2023-04-22T09:33:53.916Z,21.18
2023-04-22T09:36:30.424Z,23.18
2023-04-22T09:39:07.430Z,23.41
2023-04-22T09:41:38.641Z,22.80
2023-04-22T09:44:10.343Z,22.06
2023-04-22T09:46:37.557Z,22.01
2023-04-22T09:49:04.462Z,20.32
2023-04-22T09:51:32.160Z,21.17
2023-04-22T09:54:08.763Z,21.81
2023-04-22T09:56:43.718Z,22.50
2023-04-22T09:59:10.898Z,22.59
2023-04-22T10:01:41.174Z,20.97
2023-04-22T10:04:15.095Z,21.81
2023-04-22T10:06:43.349Z,20.23
2023-04-22T10:09:10.276Z,19.85
2023-04-22T10:11:37.773Z,18.64
2023-04-22T10:14:05.475Z,17.46
2023-04-22T10:16:34.894Z,18.49
2023-04-22T10:19:04.774Z,18.41
2023-04-22T10:21:33.585Z,17.86
2023-04-22T10:24:00.951Z,17.20
2023-04-22T10:26:51.104Z,16.73
2023-04-22T10:29:19.967Z,16.39
2023-04-22T10:32:23.897Z,16.05
2023-04-22T10:35:06.427Z,14.73
2023-04-22T10:37:34.206Z,14.54
2023-04-22T10:40:07.877Z,14.04
2023-04-22T10:42:35.390Z,14.26
2023-04-22T10:45:04.329Z,16.55
2023-04-22T10:47:36.251Z,16.54
2023-04-22T10:50:27.870Z,14.84
2023-04-22T10:53:00.414Z,16.03
2023-04-22T10:55:50.028Z,14.12
2023-04-22T10:58:21.811Z,12.74
2023-04-22T11:00:54.362Z,13.65
2023-04-22T11:03:31.370Z,13.97
2023-04-22T11:06:18.776Z,14.58
2023-04-22T11:08:48.197Z,14.36
2023-04-22T11:11:17.237Z,12.38
2023-04-22T11:13:45.589Z,12.90
2023-04-22T11:16:12.504Z,13.11
2023-04-22T11:18:39.981Z,13.14
2023-04-22T11:21:08.781Z,13.47
2023-04-22T11:23:38.756Z,13.18
2023-04-22T11:26:07.082Z,13.25
2023-04-22T11:28:34.350Z,14.51
2023-04-22T11:31:10.489Z,14.64
2023-04-22T11:33:39.275Z,14.56
2023-04-22T11:36:10.204Z,15.17
2023-04-22T11:38:37.396Z,15.90
2023-04-22T11:41:05.161Z,16.95
2023-04-22T11:43:32.347Z,17.16
2023-04-22T11:45:59.467Z,18.29
2023-04-22T11:48:26.814Z,20.68
2023-04-22T11:51:09.921Z,21.76
2023-04-22T11:53:38.752Z,21.94
2023-04-22T11:56:05.750Z,22.94
2023-04-22T11:58:32.991Z,23.70
2023-04-22T12:01:00.674Z,24.42
2023-04-22T12:03:29.762Z,25.22
2023-04-22T12:06:04.563Z,25.87
2023-04-22T12:08:37.034Z,25.69
2023-04-22T12:11:09.470Z,25.44
2023-04-22T12:13:36.572Z,25.84
2023-04-22T12:16:05.879Z,25.71
2023-04-22T12:18:38.595Z,25.83
2023-04-22T12:21:09.468Z,25.44
2023-04-22T12:23:49.903Z,25.62
2023-04-22T12:26:18.197Z,24.95
2023-04-22T12:28:46.083Z,24.95
2023-04-22T12:31:14.797Z,25.38
2023-04-22T12:33:42.838Z,25.40
2023-04-22T12:36:10.337Z,23.62
2023-04-22T12:38:37.975Z,21.91
2023-04-22T12:41:06.515Z,22.53
2023-04-22T12:43:36.742Z,24.03
2023-04-22T12:46:05.276Z,25.34
2023-04-22T12:48:32.888Z,25.26
2023-04-22T12:51:00.249Z,23.83
2023-04-22T12:53:28.196Z,24.69
2023-04-22T12:55:56.035Z,23.92
2023-04-22T12:58:23.891Z,23.13
2023-04-22T13:00:50.784Z,22.44
2023-04-22T13:03:18.096Z,20.36
2023-04-22T13:05:45.671Z,21.24
2023-04-22T13:08:12.792Z,23.92
2023-04-22T13:10:39.691Z,24.13
2023-04-22T13:15:39.115Z,25.74
2023-04-22T13:18:06.782Z,25.41
2023-04-22T13:20:33.813Z,24.83
2023-04-22T13:23:02.262Z,25.11
2023-04-22T13:25:29.472Z,25.57
2023-04-22T13:27:56.690Z,25.67
2023-04-22T13:30:23.607Z,26.60
2023-04-22T13:32:50.903Z,26.96
2023-04-22T13:35:18.544Z,26.41
2023-04-22T13:37:46.793Z,27.25
2023-04-22T13:40:13.823Z,26.85
2023-04-22T13:42:41.145Z,26.84
2023-04-22T13:45:08.649Z,26.81
2023-04-22T13:47:36.129Z,27.04
2023-04-22T13:50:03.431Z,27.51
2023-04-22T13:52:30.686Z,26.74
2023-04-22T13:54:57.549Z,27.97
2023-04-22T13:57:24.771Z,28.82
2023-04-22T13:59:51.783Z,28.91
2023-04-22T14:02:19.018Z,29.16
2023-04-22T14:04:45.956Z,29.17
2023-04-22T14:07:13.166Z,29.54
2023-04-22T14:09:40.287Z,29.33
2023-04-22T14:12:08.691Z,30.05
2023-04-22T14:14:35.810Z,30.13
2023-04-22T14:17:03.454Z,29.39
2023-04-22T14:19:31.851Z,29.99
2023-04-22T14:21:58.987Z,29.83
2023-04-22T14:24:26.109Z,30.81
2023-04-22T14:26:54.306Z,30.83
2023-04-22T14:29:21.434Z,31.19
2023-04-22T14:31:49.985Z,30.96
2023-04-22T14:34:17.530Z,29.61
2023-04-22T14:36:44.660Z,28.53
2023-04-22T14:39:11.905Z,29.11
2023-04-22T14:41:39.224Z,28.05
2023-04-22T14:44:06.449Z,28.75
2023-04-22T14:46:33.609Z,28.22
2023-04-22T14:49:00.865Z,26.87
2023-04-22T14:51:29.112Z,27.52
2023-04-22T14:53:56.508Z,26.19
2023-04-22T14:56:24.437Z,25.97
2023-04-22T14:58:51.300Z,27.02
2023-04-22T15:01:18.782Z,26.79
2023-04-22T15:03:45.981Z,27.44
2023-04-22T15:06:13.256Z,27.86
2023-04-22T15:08:40.158Z,27.15
2023-04-22T15:11:07.855Z,26.88
2023-04-22T15:13:34.739Z,27.05
2023-04-22T15:16:02.346Z,27.17
2023-04-22T15:18:29.573Z,27.40
2023-04-22T15:20:56.705Z,27.56
2023-04-22T15:23:23.647Z,28.04
2023-04-22T15:25:50.842Z,28.88
2023-04-22T15:28:17.827Z,29.16
2023-04-22T15:30:44.957Z,29.53
2023-04-22T15:33:11.845Z,29.32
2023-04-22T15:35:39.078Z,29.53
2023-04-22T15:38:06.014Z,29.30
2023-04-22T15:40:33.147Z,29.89
2023-04-22T15:42:59.939Z,29.95
2023-04-22T15:45:27.168Z,30.71
2023-04-22T15:47:54.439Z,31.03
2023-04-22T15:50:23.523Z,30.89
2023-04-22T15:52:50.534Z,29.80
2023-04-22T15:55:18.212Z,29.92
2023-04-22T15:57:45.077Z,30.75
2023-04-22T16:00:14.411Z,30.42
2023-04-22T16:02:43.242Z,30.62
2023-04-22T16:05:11.900Z,31.19
2023-04-22T16:07:39.456Z,30.72
2023-04-22T16:10:07.352Z,31.42
2023-04-22T16:12:34.613Z,31.55
2023-04-22T16:15:02.255Z,31.50
2023-04-22T16:17:30.077Z,31.22
2023-04-22T16:19:57.357Z,32.25
2023-04-22T16:22:24.322Z,32.37
2023-04-22T16:24:51.555Z,32.95
2023-04-22T16:27:19.333Z,32.76
2023-04-22T16:29:46.608Z,32.92
2023-04-22T16:32:13.619Z,33.61
2023-04-22T16:34:40.835Z,33.26
2023-04-22T16:37:08.028Z,32.97
2023-04-22T16:39:35.507Z,32.29
2023-04-22T16:42:03.083Z,32.37
2023-04-22T16:44:30.673Z,32.74
2023-04-22T16:46:57.548Z,32.98
2023-04-22T16:49:24.769Z,33.64
2023-04-22T16:51:51.648Z,34.28
2023-04-22T16:54:18.818Z,34.92
2023-04-22T16:56:45.764Z,35.16
2023-04-22T16:59:14.474Z,35.62
2023-04-22T17:01:42.155Z,35.99
2023-04-22T17:04:09.476Z,36.24
2023-04-22T17:06:38.565Z,36.30
2023-04-22T17:09:07.706Z,36.93
2023-04-22T17:11:34.546Z,37.67
2023-04-22T17:14:01.725Z,38.00
2023-04-22T17:16:28.663Z,38.61
2023-04-22T17:18:55.906Z,39.33
2023-04-22T17:21:23.469Z,40.02
2023-04-22T17:23:50.807Z,41.16
2023-04-22T17:26:17.701Z,41.86
2023-04-22T17:28:44.816Z,43.26
2023-04-22T17:31:12.252Z,44.83
2023-04-22T17:33:40.932Z,46.11
2023-04-22T17:36:07.887Z,47.06
2023-04-22T17:38:35.542Z,48.07
2023-04-22T17:41:02.710Z,50.57
2023-04-22T17:43:29.966Z,52.82
2023-04-22T17:45:56.961Z,55.97
2023-04-22T17:48:24.149Z,56.79
2023-04-22T17:50:51.178Z,58.90
2023-04-22T17:53:18.322Z,59.44
2023-04-22T17:55:45.234Z,61.11
2023-04-22T17:58:12.414Z,64.46
2023-04-22T18:00:39.705Z,66.97
2023-04-22T18:03:07.855Z,67.96
2023-04-22T18:05:34.973Z,68.86
2023-04-22T18:08:03.013Z,69.94
2023-04-22T18:10:30.923Z,70.37
2023-04-22T18:12:58.166Z,71.19
2023-04-22T18:15:25.135Z,71.86
2023-04-22T18:17:52.441Z,72.92
2023-04-22T18:20:20.662Z,74.35
2023-04-22T18:22:49.875Z,75.44
2023-04-22T18:25:16.798Z,76.76
2023-04-22T18:27:44.448Z,78.18
2023-04-22T18:30:11.719Z,78.98
2023-04-22T18:32:39.078Z,81.05
2023-04-22T18:35:06.591Z,82.57
2023-04-22T18:37:34.890Z,83.88
2023-04-22T18:40:02.730Z,83.84
2023-04-22T18:42:30.307Z,83.64
2023-04-22T18:44:57.469Z,84.24
2023-04-22T18:47:24.614Z,84.88
2023-04-22T18:49:51.494Z,85.58
2023-04-22T18:52:18.892Z,86.53
2023-04-22T18:54:45.759Z,86.87
2023-04-22T18:57:12.845Z,87.85
2023-04-22T18:59:39.894Z,88.41
2023-04-22T19:02:07.151Z,89.05
2023-04-22T19:04:34.146Z,90.11
2023-04-22T19:07:01.325Z,91.05
2023-04-22T19:09:29.216Z,91.16
2023-04-22T19:11:56.478Z,91.83
2023-04-22T19:14:23.391Z,92.84
2023-04-22T19:16:51.443Z,93.82
2023-04-22T19:19:18.342Z,93.98
2023-04-22T19:21:45.699Z,94.64
2023-04-22T19:24:14.355Z,95.69
2023-04-22T19:26:41.588Z,96.33
2023-04-22T19:29:08.752Z,96.38
2023-04-22T19:31:38.913Z,97.85
2023-04-22T19:34:05.858Z,98.41
2023-04-22T19:36:33.087Z,98.77
2023-04-22T19:39:00.064Z,99.29
2023-04-22T19:41:27.424Z,99.34
2023-04-22T19:43:56.296Z,99.46
2023-04-22T19:46:23.404Z,98.85
2023-04-22T19:48:51.417Z,99.25
2023-04-22T19:51:19.753Z,99.07
2023-04-22T19:53:47.021Z,99.23
2023-04-22T19:56:15.003Z,99.32
2023-04-22T19:58:42.855Z,99.61
2023-04-22T20:01:10.302Z,100.00
2023-04-22T20:03:37.694Z,100.00
2023-04-22T20:06:05.321Z,100.00
2023-04-22T20:08:33.041Z,100.00
2023-04-22T20:11:01.089Z,100.00
2023-04-22T20:13:28.157Z,100.00
2023-04-22T20:15:55.547Z,100.00
2023-04-22T20:18:22.556Z,100.00
2023-04-22T20:20:51.843Z,100.00
2023-04-22T20:23:23.449Z,100.00
2023-04-22T20:25:51.731Z,100.00
2023-04-22T20:28:19.401Z,100.00
2023-04-22T20:30:46.822Z,100.00
2023-04-22T20:33:17.231Z,100.00
2023-04-22T20:35:46.457Z,100.00
2023-04-22T20:38:15.169Z,100.00
2023-04-22T20:40:44.749Z,100.00
2023-04-22T20:43:11.477Z,100.00
2023-04-22T20:45:38.661Z,100.00
2023-04-22T20:48:05.580Z,100.00
2023-04-22T20:50:33.684Z,100.00
2023-04-22T20:53:01.262Z,100.00
2023-04-22T20:55:28.429Z,100.00
2023-04-22T20:57:55.307Z,100.00
2023-04-22T21:00:22.712Z,100.00
2023-04-22T21:02:51.124Z,100.00
2023-04-22T21:05:19.106Z,100.00
2023-04-22T21:07:48.476Z,100.00
2023-04-22T21:10:16.092Z,100.00
2023-04-22T21:12:43.529Z,100.00
2023-04-22T21:15:11.459Z,100.00
2023-04-22T21:17:41.524Z,100.00
2023-04-22T21:20:09.614Z,100.00
2023-04-22T21:22:37.555Z,100.00
2023-04-22T21:25:06.067Z,100.00
2023-04-22T21:27:33.238Z,100.00
2023-04-22T21:30:01.204Z,100.00
2023-04-22T21:32:29.565Z,100.00
2023-04-22T21:34:56.981Z,100.00
2023-04-22T21:37:24.180Z,100.00
2023-04-22T21:39:51.390Z,100.00
2023-04-22T21:42:18.285Z,100.00
2023-04-22T21:44:49.771Z,100.00
2023-04-22T21:47:16.874Z,100.00
2023-04-22T21:49:46.679Z,100.00
2023-04-22T21:52:13.544Z,100.00
2023-04-22T21:54:40.934Z,100.00
2023-04-22T21:57:08.026Z,100.00
2023-04-22T21:59:35.154Z,100.00
2023-04-22T22:02:02.168Z,100.00
2023-04-22T22:04:29.664Z,100.00
2023-04-22T22:06:56.710Z,100.00
2023-04-22T22:09:23.868Z,100.00
2023-04-22T22:11:50.966Z,100.00
2023-04-22T22:14:18.148Z,100.00
2023-04-22T22:16:45.053Z,100.00
2023-04-22T22:19:13.933Z,100.00
2023-04-22T22:21:40.766Z,100.00
2023-04-22T22:24:09.555Z,100.00
2023-04-22T22:26:36.593Z,100.00
2023-04-22T22:29:03.802Z,100.00
2023-04-22T22:31:30.667Z,100.00
2023-04-22T22:33:58.827Z,100.00
2023-04-22T22:36:25.736Z,100.00
2023-04-22T22:38:52.895Z,100.00
2023-04-22T22:41:19.712Z,100.00
2023-04-22T22:43:46.868Z,100.00
2023-04-22T22:46:13.753Z,100.00
2023-04-22T22:48:41.072Z,100.00
2023-04-22T22:51:09.506Z,100.00
2023-04-22T22:53:36.853Z,100.00
2023-04-22T22:56:03.914Z,100.00
2023-04-22T22:58:31.386Z,100.00
2023-04-22T23:00:58.233Z,100.00
2023-04-22T23:03:25.479Z,100.00
2023-04-22T23:05:52.476Z,100.00
2023-04-22T23:08:19.610Z,100.00
2023-04-22T23:10:46.439Z,100.00
2023-04-22T23:13:13.588Z,100.00
2023-04-22T23:15:40.521Z,100.00
2023-04-22T23:18:09.093Z,100.00
2023-04-22T23:20:37.294Z,100.00
2023-04-22T23:23:05.087Z,100.00
2023-04-22T23:25:32.258Z,100.00
2023-04-22T23:28:00.048Z,100.00
2023-04-22T23:30:27.116Z,100.00
2023-04-22T23:32:57.600Z,100.00
2023-04-22T23:35:27.499Z,100.00
2023-04-22T23:37:55.169Z,100.00
2023-04-22T23:40:22.046Z,100.00
2023-04-22T23:42:49.168Z,100.00
2023-04-22T23:45:16.098Z,100.00
2023-04-22T23:47:43.373Z,100.00
2023-04-22T23:50:11.064Z,100.00
2023-04-22T23:52:41.421Z,100.00
2023-04-22T23:55:13.981Z,100.00
2023-04-22T23:57:42.089Z,100.00
